Terminal Aerodrome Forecast
Issued by NWS

Home | Current Version | Previous Version | Text Only | Print | Product List | Glossary On
Versions: 1 2 3 4 5 6 7 8 9 10 11 12 13 14 15 16 17 18 19
830
FTUS43 KSGF 200927 AAA
TAFJLN
TAF AMD
KJLN 200927Z 2009/2106 17011KT P6SM -TSRA OVC050CB
     FM201000 21009KT P6SM VCSH OVC025
     FM201400 21010KT P6SM OVC050
     FM201700 25010KT P6SM BKN050
     FM210500 29005KT P6SM FEW200=

USA.gov is the U.S. government's official web portal to all federal, state and local government web resources and services.